Robert E. Mcallister — WDC8669 — position and weather

sailwx.info

Track history (hours):
 
Tides and Currents Weather Stations Pressure Air Temp Water Temp Dewpoint Dewpoint Depression Visibility Wind Speed Wind Dir Waves Ship Positions

Robert E. Mcallister

Owner: McAllister Towing & Transportation, Staten Island, NY. More information available from US FCC via Universal Licensing System and Coast Guard Vessel Documentation Center.

Last reported at 2016-Jun-26 12:33 UTC. Time now 2016-Jun-26 17:23 UTC.
Position N 40°27' W 074°03'.

Length 34 m; draft 4.3 m.

Type: Tug. MMSI: 367091120.

Date/timePositionNaut miles runAvg speedWind from/ knotsBaromVisibWave heightAir tempDewpointWater temp
2016-Jun-26 12:33N 40°27' W 074°03'0 0.0
2016-Jun-26 11:31N 40°27' W 074°03'0 0.0
2016-Jun-26 10:29N 40°27' W 074°03'0 0.0
2016-Jun-26 09:29N 40°27' W 074°03'0 0.0
2016-Jun-26 08:28N 40°27' W 074°03'0 0.0
2016-Jun-26 04:18N 40°27' W 074°03'0 0.0
2016-Jun-26 03:33N 40°27' W 074°03'0 0.0
2016-Jun-25 16:21N 40°27' W 074°03'0 0.0
2016-Jun-24 17:11N 40°27' W 074°03'0 0.2
2016-Jun-24 16:33N 40°27' W 074°03'5 1.5
2016-Jun-24 13:29N 40°32' W 074°02'7 7.1
2016-Jun-24 12:33N 40°39' W 074°04'1 1.3
2016-Jun-24 11:33N 40°40' W 074°04'0 0.0
2016-Jun-24 10:33N 40°40' W 074°04'0 0.0
2016-Jun-24 09:33N 40°40' W 074°04'0 0.0
2016-Jun-24 08:33N 40°40' W 074°04'0 0.0
2016-Jun-24 07:33N 40°40' W 074°04'0 0.0
2016-Jun-24 04:33N 40°40' W 074°04'2 2.5
2016-Jun-24 03:33N 40°39' W 074°07'2 1.7
2016-Jun-24 02:33N 40°40' W 074°09'0 0.1
2016-Jun-24 01:33N 40°40' W 074°09'1 1.1
2016-Jun-24 00:26N 40°41' W 074°09'3 0.5
2016-Jun-23 19:20N 40°38' W 074°10'1 1.9
2016-Jun-23 18:33N 40°40' W 074°09'0 0.2
2016-Jun-23 17:14N 40°40' W 074°09'0 0.0
2016-Jun-23 16:10N 40°40' W 074°09'0 0.0
2016-Jun-23 15:06N 40°40' W 074°09'0 0.0
2016-Jun-23 13:28N 40°40' W 074°09'1 0.6
2016-Jun-23 11:07N 40°38' W 074°10'0 0.0
2016-Jun-23 08:18N 40°38' W 074°10'5 6.4
2016-Jun-23 07:33N 40°40' W 074°04'4 0.4
2016-Jun-22 22:33N 40°41' W 074°09'1 0.7
2016-Jun-22 21:31N 40°40' W 074°08'3 3.5
2016-Jun-22 20:32N 40°39' W 074°04'0 0.2
2016-Jun-22 19:33N 40°39' W 074°05'1 0.0
2016-Jun-22 00:29N 40°39' W 074°06'2 0.8
2016-Jun-21 21:32N 40°40' W 074°08'3 2.9
2016-Jun-21 20:33N 40°39' W 074°05'0 0.0
2016-Jun-21 12:33N 40°39' W 074°05'2 2.0
2016-Jun-21 11:33N 40°37' W 074°03'2 1.0
2016-Jun-21 09:06N 40°39' W 074°06'2 3.0
2016-Jun-21 08:33N 40°40' W 074°04'0 0.0
2016-Jun-21 07:33N 40°40' W 074°04'0 0.0
2016-Jun-21 05:33N 40°40' W 074°04'0 0.0
2016-Jun-21 04:33N 40°40' W 074°04'0 0.0
2016-Jun-21 03:33N 40°40' W 074°04'2 2.4
2016-Jun-21 02:33N 40°41' W 074°01'0 0.4
2016-Jun-21 01:33N 40°41' W 074°02'2 2.1
2016-Jun-21 00:33N 40°40' W 074°04'0 0.0
2016-Jun-20 23:33N 40°40' W 074°04'0 0.0
2016-Jun-20 22:33N 40°40' W 074°04'0 0.0
2016-Jun-20 21:33N 40°40' W 074°04'5 5.1
2016-Jun-20 20:33N 40°42' W 073°58'0 0.1
2016-Jun-20 19:33N 40°42' W 073°58'5 5.0
2016-Jun-20 18:33N 40°40' W 074°04'1 1.2
2016-Jun-20 17:33N 40°39' W 074°05'3 3.5
2016-Jun-20 16:33N 40°38' W 074°10'0 0.0
2016-Jun-20 15:33N 40°38' W 074°10'0 0.0
2016-Jun-20 14:27N 40°38' W 074°10'0 0.0
2016-Jun-20 13:28N 40°38' W 074°10'0 0.0
2016-Jun-20 12:30N 40°38' W 074°10'0 0.0
2016-Jun-20 11:33N 40°38' W 074°10'0 0.1
2016-Jun-20 10:31N 40°39' W 074°10'1 0.6
2016-Jun-20 09:32N 40°39' W 074°09'5 4.6
2016-Jun-20 08:33N 40°38' W 074°03'5 0.9
2016-Jun-20 03:33N 40°39' W 074°09'1 0.6
2016-Jun-20 02:27N 40°40' W 074°09'0 0.0
2016-Jun-20 01:26N 40°40' W 074°09'1 0.7
2016-Jun-20 00:33N 40°40' W 074°08'2 2.5
2016-Jun-19 23:33N 40°39' W 074°06'0 0.0
2016-Jun-19 22:33N 40°39' W 074°06'0 0.0
2016-Jun-19 19:23N 40°39' W 074°06'2 2.1
2016-Jun-19 18:33N 40°40' W 074°04'0 0.0
2016-Jun-19 17:33N 40°40' W 074°04'0 0.0
2016-Jun-19 16:33N 40°40' W 074°04'0 0.0
2016-Jun-19 15:33N 40°40' W 074°04'0 0.0
2016-Jun-19 14:33N 40°40' W 074°04'0 0.0
2016-Jun-19 13:33N 40°40' W 074°04'0 0.0
2016-Jun-19 12:33N 40°40' W 074°04'0 0.0
2016-Jun-19 11:33N 40°40' W 074°04'0 0.0
2016-Jun-19 10:32N 40°40' W 074°04'0 0.0
2016-Jun-19 09:33N 40°40' W 074°04'0 0.1
2016-Jun-19 08:33N 40°40' W 074°04'0 0.1
2016-Jun-19 07:33N 40°40' W 074°04'0 0.0
2016-Jun-19 06:32N 40°40' W 074°04'0 0.0
2016-Jun-19 05:33N 40°40' W 074°04'0 0.0
2016-Jun-19 04:33N 40°40' W 074°04'0 0.1
2016-Jun-19 03:33N 40°40' W 074°04'0 0.0
2016-Jun-19 02:33N 40°40' W 074°04'0 0.0
2016-Jun-19 01:33N 40°40' W 074°04'1 1.1
2016-Jun-19 00:33N 40°39' W 074°05'0 0.1
2016-Jun-18 23:33N 40°39' W 074°05'4 1.1
2016-Jun-18 20:17N 40°38' W 074°10'0 0.0
2016-Jun-18 16:16N 40°38' W 074°10'2 2.6
2016-Jun-18 15:33N 40°40' W 074°08'0 0.1
2016-Jun-18 14:33N 40°40' W 074°08'2 0.9
2016-Jun-18 12:20N 40°38' W 074°10'0 0.0
2016-Jun-18 11:26N 40°38' W 074°10'0 0.0
2016-Jun-18 10:32N 40°38' W 074°10'0 0.0
2016-Jun-18 09:14N 40°38' W 074°10'2 1.3
2016-Jun-18 07:33N 40°37' W 074°12'2 0.4
2016-Jun-18 01:33N 40°38' W 074°10'4 4.5
2016-Jun-18 00:34N 40°40' W 074°04'0 0.2
2016-Jun-17 23:34N 40°40' W 074°05'4 2.2
2016-Jun-17 21:34N 40°38' W 074°10'0 0.0
2016-Jun-17 20:34N 40°38' W 074°10'0 0.0
2016-Jun-17 19:33N 40°38' W 074°10'8 7.8
2016-Jun-17 18:34N 40°41' W 074°00'3 3.3
2016-Jun-17 17:33N 40°39' W 074°03'5 2.3
2016-Jun-17 15:22N 40°38' W 074°10'2 2.1
2016-Jun-17 14:33N 40°40' W 074°08'2 1.8
2016-Jun-17 13:33N 40°42' W 074°08'5 4.8
2016-Jun-17 12:33N 40°39' W 074°03'5 3.9
2016-Jun-17 11:19N 40°38' W 074°10'3 4.2
2016-Jun-17 10:29N 40°42' W 074°09'2 2.3
2016-Jun-17 09:33N 40°40' W 074°09'1 0.7
2016-Jun-17 07:28N 40°38' W 074°10'0 0.0
2016-Jun-17 04:26N 40°38' W 074°10'1 1.4
2016-Jun-17 03:31N 40°40' W 074°09'1 0.2
2016-Jun-16 22:20N 40°38' W 074°10'1 1.6
2016-Jun-16 21:33N 40°40' W 074°09'0 0.1
2016-Jun-16 20:33N 40°40' W 074°09'0 0.2
2016-Jun-16 19:33N 40°39' W 074°09'1 1.1
2016-Jun-16 18:27N 40°38' W 074°10'2 2.7
2016-Jun-16 17:33N 40°39' W 074°07'0 0.1
2016-Jun-16 16:19N 40°39' W 074°07'0 0.0
2016-Jun-16 15:30N 40°39' W 074°07'0 0.0
2016-Jun-16 14:17N 40°39' W 074°07'2 2.6
2016-Jun-16 13:34N 40°40' W 074°09'0 0.0
2016-Jun-16 12:34N 40°40' W 074°09'  
Track history (hours):
 
Tides and Currents Weather Stations Pressure Air Temp Water Temp Dewpoint Dewpoint Depression Visibility Wind Speed Wind Dir Waves Ship Positions

Robert E. Mcallister

Owner: McAllister Towing & Transportation, Staten Island, NY. More information available from US FCC via Universal Licensing System and Coast Guard Vessel Documentation Center.

Last reported at 2016-Jun-26 12:33 UTC. Time now 2016-Jun-26 17:23 UTC.
Position N 40°27' W 074°03'.

Length 34 m; draft 4.3 m.

Type: Tug. MMSI: 367091120.

Date/timePositionNaut miles runAvg speedWind from/ knotsBaromVisibWave heightAir tempDewpointWater temp
2016-Jun-26 12:33N 40°27' W 074°03'0 0.0
2016-Jun-26 11:31N 40°27' W 074°03'0 0.0
2016-Jun-26 10:29N 40°27' W 074°03'0 0.0
2016-Jun-26 09:29N 40°27' W 074°03'0 0.0
2016-Jun-26 08:28N 40°27' W 074°03'0 0.0
2016-Jun-26 04:18N 40°27' W 074°03'0 0.0
2016-Jun-26 03:33N 40°27' W 074°03'0 0.0
2016-Jun-25 16:21N 40°27' W 074°03'0 0.0
2016-Jun-24 17:11N 40°27' W 074°03'0 0.2
2016-Jun-24 16:33N 40°27' W 074°03'5 1.5
2016-Jun-24 13:29N 40°32' W 074°02'7 7.1
2016-Jun-24 12:33N 40°39' W 074°04'1 1.3
2016-Jun-24 11:33N 40°40' W 074°04'0 0.0
2016-Jun-24 10:33N 40°40' W 074°04'0 0.0
2016-Jun-24 09:33N 40°40' W 074°04'0 0.0
2016-Jun-24 08:33N 40°40' W 074°04'0 0.0
2016-Jun-24 07:33N 40°40' W 074°04'0 0.0
2016-Jun-24 04:33N 40°40' W 074°04'2 2.5
2016-Jun-24 03:33N 40°39' W 074°07'2 1.7
2016-Jun-24 02:33N 40°40' W 074°09'0 0.1
2016-Jun-24 01:33N 40°40' W 074°09'1 1.1
2016-Jun-24 00:26N 40°41' W 074°09'3 0.5
2016-Jun-23 19:20N 40°38' W 074°10'1 1.9
2016-Jun-23 18:33N 40°40' W 074°09'0 0.2
2016-Jun-23 17:14N 40°40' W 074°09'0 0.0
2016-Jun-23 16:10N 40°40' W 074°09'0 0.0
2016-Jun-23 15:06N 40°40' W 074°09'0 0.0
2016-Jun-23 13:28N 40°40' W 074°09'1 0.6
2016-Jun-23 11:07N 40°38' W 074°10'0 0.0
2016-Jun-23 08:18N 40°38' W 074°10'5 6.4
2016-Jun-23 07:33N 40°40' W 074°04'4 0.4
2016-Jun-22 22:33N 40°41' W 074°09'1 0.7
2016-Jun-22 21:31N 40°40' W 074°08'3 3.5
2016-Jun-22 20:32N 40°39' W 074°04'0 0.2
2016-Jun-22 19:33N 40°39' W 074°05'1 0.0
2016-Jun-22 00:29N 40°39' W 074°06'2 0.8
2016-Jun-21 21:32N 40°40' W 074°08'3 2.9
2016-Jun-21 20:33N 40°39' W 074°05'0 0.0
2016-Jun-21 12:33N 40°39' W 074°05'2 2.0
2016-Jun-21 11:33N 40°37' W 074°03'2 1.0
2016-Jun-21 09:06N 40°39' W 074°06'2 3.0
2016-Jun-21 08:33N 40°40' W 074°04'0 0.0
2016-Jun-21 07:33N 40°40' W 074°04'0 0.0
2016-Jun-21 05:33N 40°40' W 074°04'0 0.0
2016-Jun-21 04:33N 40°40' W 074°04'0 0.0
2016-Jun-21 03:33N 40°40' W 074°04'2 2.4
2016-Jun-21 02:33N 40°41' W 074°01'0 0.4
2016-Jun-21 01:33N 40°41' W 074°02'2 2.1
2016-Jun-21 00:33N 40°40' W 074°04'0 0.0
2016-Jun-20 23:33N 40°40' W 074°04'0 0.0
2016-Jun-20 22:33N 40°40' W 074°04'0 0.0
2016-Jun-20 21:33N 40°40' W 074°04'5 5.1
2016-Jun-20 20:33N 40°42' W 073°58'0 0.1
2016-Jun-20 19:33N 40°42' W 073°58'5 5.0
2016-Jun-20 18:33N 40°40' W 074°04'1 1.2
2016-Jun-20 17:33N 40°39' W 074°05'3 3.5
2016-Jun-20 16:33N 40°38' W 074°10'0 0.0
2016-Jun-20 15:33N 40°38' W 074°10'0 0.0
2016-Jun-20 14:27N 40°38' W 074°10'0 0.0
2016-Jun-20 13:28N 40°38' W 074°10'0 0.0
2016-Jun-20 12:30N 40°38' W 074°10'0 0.0
2016-Jun-20 11:33N 40°38' W 074°10'0 0.1
2016-Jun-20 10:31N 40°39' W 074°10'1 0.6
2016-Jun-20 09:32N 40°39' W 074°09'5 4.6
2016-Jun-20 08:33N 40°38' W 074°03'5 0.9
2016-Jun-20 03:33N 40°39' W 074°09'1 0.6
2016-Jun-20 02:27N 40°40' W 074°09'0 0.0
2016-Jun-20 01:26N 40°40' W 074°09'1 0.7
2016-Jun-20 00:33N 40°40' W 074°08'2 2.5
2016-Jun-19 23:33N 40°39' W 074°06'0 0.0
2016-Jun-19 22:33N 40°39' W 074°06'0 0.0
2016-Jun-19 19:23N 40°39' W 074°06'2 2.1
2016-Jun-19 18:33N 40°40' W 074°04'0 0.0
2016-Jun-19 17:33N 40°40' W 074°04'0 0.0
2016-Jun-19 16:33N 40°40' W 074°04'0 0.0
2016-Jun-19 15:33N 40°40' W 074°04'0 0.0
2016-Jun-19 14:33N 40°40' W 074°04'0 0.0
2016-Jun-19 13:33N 40°40' W 074°04'0 0.0
2016-Jun-19 12:33N 40°40' W 074°04'0 0.0
2016-Jun-19 11:33N 40°40' W 074°04'0 0.0
2016-Jun-19 10:32N 40°40' W 074°04'0 0.0
2016-Jun-19 09:33N 40°40' W 074°04'0 0.1
2016-Jun-19 08:33N 40°40' W 074°04'0 0.1
2016-Jun-19 07:33N 40°40' W 074°04'0 0.0
2016-Jun-19 06:32N 40°40' W 074°04'0 0.0
2016-Jun-19 05:33N 40°40' W 074°04'0 0.0
2016-Jun-19 04:33N 40°40' W 074°04'0 0.1
2016-Jun-19 03:33N 40°40' W 074°04'0 0.0
2016-Jun-19 02:33N 40°40' W 074°04'0 0.0
2016-Jun-19 01:33N 40°40' W 074°04'1 1.1
2016-Jun-19 00:33N 40°39' W 074°05'0 0.1
2016-Jun-18 23:33N 40°39' W 074°05'4 1.1
2016-Jun-18 20:17N 40°38' W 074°10'0 0.0
2016-Jun-18 16:16N 40°38' W 074°10'2 2.6
2016-Jun-18 15:33N 40°40' W 074°08'0 0.1
2016-Jun-18 14:33N 40°40' W 074°08'2 0.9
2016-Jun-18 12:20N 40°38' W 074°10'0 0.0
2016-Jun-18 11:26N 40°38' W 074°10'0 0.0
2016-Jun-18 10:32N 40°38' W 074°10'0 0.0
2016-Jun-18 09:14N 40°38' W 074°10'2 1.3
2016-Jun-18 07:33N 40°37' W 074°12'2 0.4
2016-Jun-18 01:33N 40°38' W 074°10'4 4.5
2016-Jun-18 00:34N 40°40' W 074°04'0 0.2
2016-Jun-17 23:34N 40°40' W 074°05'4 2.2
2016-Jun-17 21:34N 40°38' W 074°10'0 0.0
2016-Jun-17 20:34N 40°38' W 074°10'0 0.0
2016-Jun-17 19:33N 40°38' W 074°10'8 7.8
2016-Jun-17 18:34N 40°41' W 074°00'3 3.3
2016-Jun-17 17:33N 40°39' W 074°03'5 2.3
2016-Jun-17 15:22N 40°38' W 074°10'2 2.1
2016-Jun-17 14:33N 40°40' W 074°08'2 1.8
2016-Jun-17 13:33N 40°42' W 074°08'5 4.8
2016-Jun-17 12:33N 40°39' W 074°03'5 3.9
2016-Jun-17 11:19N 40°38' W 074°10'3 4.2
2016-Jun-17 10:29N 40°42' W 074°09'2 2.3
2016-Jun-17 09:33N 40°40' W 074°09'1 0.7
2016-Jun-17 07:28N 40°38' W 074°10'0 0.0
2016-Jun-17 04:26N 40°38' W 074°10'1 1.4
2016-Jun-17 03:31N 40°40' W 074°09'1 0.2
2016-Jun-16 22:20N 40°38' W 074°10'1 1.6
2016-Jun-16 21:33N 40°40' W 074°09'0 0.1
2016-Jun-16 20:33N 40°40' W 074°09'0 0.2
2016-Jun-16 19:33N 40°39' W 074°09'1 1.1
2016-Jun-16 18:27N 40°38' W 074°10'2 2.7
2016-Jun-16 17:33N 40°39' W 074°07'0 0.1
2016-Jun-16 16:19N 40°39' W 074°07'0 0.0
2016-Jun-16 15:30N 40°39' W 074°07'0 0.0
2016-Jun-16 14:17N 40°39' W 074°07'2 2.6
2016-Jun-16 13:34N 40°40' W 074°09'0 0.0
2016-Jun-16 12:34N 40°40' W 074°09'  

Dump ship's entire track history